createdAt,value
2023-10-23T00:00:12.260Z,99557.59
2023-10-23T00:02:41.045Z,99564.41
2023-10-23T00:05:09.982Z,99556.41
2023-10-23T00:07:38.002Z,99555.63
2023-10-23T00:10:06.810Z,99561.63
2023-10-23T00:12:34.657Z,99559.03
2023-10-23T00:15:03.807Z,99552.28
2023-10-23T00:17:31.699Z,99557.25
2023-10-23T00:20:02.981Z,99563.09
2023-10-23T00:22:30.841Z,99562.63
2023-10-23T00:24:58.713Z,99561.91
2023-10-23T00:27:26.667Z,99554.53
2023-10-23T00:29:55.170Z,99552.31
2023-10-23T00:32:22.951Z,99552.44
2023-10-23T00:34:50.907Z,99556.13
2023-10-23T00:37:18.703Z,99560.22
2023-10-23T00:39:46.586Z,99565.59
2023-10-23T00:42:15.446Z,99572.03
2023-10-23T00:44:43.359Z,99564.63
2023-10-23T00:47:12.773Z,99568.31
2023-10-23T00:49:40.844Z,99569.47
2023-10-23T00:52:09.562Z,99570.03
2023-10-23T00:54:40.202Z,99562.34
2023-10-23T00:57:09.585Z,99561.06
2023-10-23T00:59:39.213Z,99568.03
2023-10-23T01:02:07.232Z,99557.00
2023-10-23T01:04:36.125Z,99560.06
2023-10-23T01:07:04.218Z,99565.81
2023-10-23T01:09:32.069Z,99570.97
2023-10-23T01:12:00.644Z,99570.47
2023-10-23T01:14:30.385Z,99578.25
2023-10-23T01:16:59.090Z,99579.88
2023-10-23T01:19:28.887Z,99579.84
2023-10-23T01:21:57.512Z,99566.59
2023-10-23T01:24:29.273Z,99571.94
2023-10-23T01:26:59.000Z,99569.03
2023-10-23T01:29:27.732Z,99576.00
2023-10-23T01:31:55.630Z,99573.38
2023-10-23T01:34:23.573Z,99570.00
2023-10-23T01:36:51.420Z,99571.69
2023-10-23T01:39:20.106Z,99579.78
2023-10-23T01:41:48.708Z,99571.78
2023-10-23T01:44:16.556Z,99562.63
2023-10-23T01:46:45.325Z,99567.72
2023-10-23T01:49:13.949Z,99564.94
2023-10-23T01:51:41.861Z,99555.09
2023-10-23T01:54:10.499Z,99561.28
2023-10-23T01:56:39.268Z,99566.28
2023-10-23T01:59:07.078Z,99562.59
2023-10-23T02:01:39.108Z,99570.09
2023-10-23T02:04:08.185Z,99570.16
2023-10-23T02:06:37.229Z,99569.63
2023-10-23T02:09:06.448Z,99575.75
2023-10-23T02:11:35.077Z,99572.34
2023-10-23T02:14:04.721Z,99567.28
2023-10-23T02:16:32.605Z,99570.00
2023-10-23T02:19:00.459Z,99565.97
2023-10-23T02:21:28.449Z,99564.63
2023-10-23T02:23:57.287Z,99557.47
2023-10-23T02:26:27.588Z,99562.06
2023-10-23T02:28:56.498Z,99561.28
2023-10-23T02:31:26.442Z,99562.56
2023-10-23T02:33:54.404Z,99562.66
2023-10-23T02:36:23.106Z,99570.31
2023-10-23T02:38:50.991Z,99562.47
2023-10-23T02:41:18.811Z,99563.91
2023-10-23T02:43:47.251Z,99565.56
2023-10-23T02:46:15.935Z,99562.59
2023-10-23T02:48:44.973Z,99567.28
2023-10-23T02:51:14.777Z,99569.66
2023-10-23T02:53:42.614Z,99571.94
2023-10-23T02:56:16.557Z,99567.44
2023-10-23T02:58:44.399Z,99570.09
2023-10-23T03:01:23.896Z,99579.81
2023-10-23T03:03:53.069Z,99579.16
2023-10-23T03:06:24.695Z,99573.56
2023-10-23T03:08:53.513Z,99580.13
2023-10-23T03:11:22.157Z,99585.38
2023-10-23T03:13:51.911Z,99589.50
2023-10-23T03:16:19.782Z,99594.53
2023-10-23T03:18:47.672Z,99595.41
2023-10-23T03:21:16.347Z,99595.28
2023-10-23T03:23:44.201Z,99596.94
2023-10-23T03:26:13.890Z,99604.00
2023-10-23T03:28:41.709Z,99609.91
2023-10-23T03:31:10.439Z,99611.38
2023-10-23T03:33:39.026Z,99616.13
2023-10-23T03:36:07.855Z,99607.31
2023-10-23T03:38:35.855Z,99607.63
2023-10-23T03:41:04.528Z,99607.97
2023-10-23T03:43:33.745Z,99607.66
2023-10-23T03:46:05.780Z,99613.44
2023-10-23T03:48:39.089Z,99608.44
2023-10-23T03:51:07.002Z,99611.28
2023-10-23T03:53:34.906Z,99610.44
2023-10-23T03:56:09.923Z,99605.06
2023-10-23T03:58:38.237Z,99616.16
2023-10-23T04:01:06.934Z,99612.66
2023-10-23T04:03:35.621Z,99610.03
2023-10-23T04:06:06.137Z,99620.94
2023-10-23T04:08:33.957Z,99623.38
2023-10-23T04:11:02.886Z,99629.78
2023-10-23T04:13:31.073Z,99623.38
2023-10-23T04:16:04.020Z,99633.84
2023-10-23T04:18:33.396Z,99630.38
2023-10-23T04:21:13.435Z,99621.66
2023-10-23T04:23:42.491Z,99623.56
2023-10-23T04:26:10.725Z,99635.13
2023-10-23T04:28:39.475Z,99635.63
2023-10-23T04:31:09.185Z,99629.78
2023-10-23T04:33:38.835Z,99641.25
2023-10-23T04:36:07.630Z,99633.75
2023-10-23T04:38:35.431Z,99638.97
2023-10-23T04:41:03.257Z,99650.47
2023-10-23T04:43:31.989Z,99647.75
2023-10-23T04:46:00.895Z,99654.06
2023-10-23T04:48:29.092Z,99652.56
2023-10-23T04:51:02.246Z,99654.31
2023-10-23T04:53:31.564Z,99658.38
2023-10-23T04:56:00.344Z,99654.56
2023-10-23T04:58:31.077Z,99667.06
2023-10-23T05:01:00.080Z,99664.16
2023-10-23T05:03:29.508Z,99663.34
2023-10-23T05:05:57.338Z,99668.63
2023-10-23T05:08:25.188Z,99664.75
2023-10-23T05:10:53.739Z,99666.66
2023-10-23T05:13:21.722Z,99669.38
2023-10-23T05:15:49.581Z,99665.50
2023-10-23T05:18:18.339Z,99667.09
2023-10-23T05:20:47.166Z,99676.78
2023-10-23T05:23:15.026Z,99670.19
2023-10-23T05:25:43.783Z,99662.84
2023-10-23T05:28:12.554Z,99673.66
2023-10-23T05:30:41.356Z,99669.53
2023-10-23T05:33:10.216Z,99673.00
2023-10-23T05:35:38.966Z,99682.50
2023-10-23T05:38:08.537Z,99679.72
2023-10-23T05:40:37.201Z,99675.38
2023-10-23T05:43:06.245Z,99683.53
2023-10-23T05:45:38.744Z,99684.28
2023-10-23T05:48:07.685Z,99686.06
2023-10-23T05:50:37.270Z,99686.75
2023-10-23T05:53:06.011Z,99682.66
2023-10-23T05:55:37.511Z,99684.00
2023-10-23T05:58:07.074Z,99697.09
2023-10-23T06:00:36.015Z,99691.59
2023-10-23T06:03:04.821Z,99703.00
2023-10-23T06:05:33.532Z,99696.47
2023-10-23T06:08:02.228Z,99698.28
2023-10-23T06:10:32.160Z,99698.81
2023-10-23T06:13:00.823Z,99694.63
2023-10-23T06:15:30.433Z,99701.97
2023-10-23T06:17:59.268Z,99695.69
2023-10-23T06:20:28.010Z,99699.25
2023-10-23T06:22:56.704Z,99709.84
2023-10-23T06:25:27.645Z,99707.00
2023-10-23T06:27:56.812Z,99715.53
2023-10-23T06:30:25.937Z,99711.81
2023-10-23T06:32:55.583Z,99715.31
2023-10-23T06:35:24.333Z,99714.69
2023-10-23T06:37:53.189Z,99711.75
2023-10-23T06:40:22.829Z,99717.19
2023-10-23T06:42:52.919Z,99722.63
2023-10-23T06:45:21.664Z,99720.13
2023-10-23T06:47:51.090Z,99717.06
2023-10-23T06:50:20.228Z,99718.91
2023-10-23T06:52:48.985Z,99725.06
2023-10-23T06:55:19.288Z,99726.56
2023-10-23T06:57:48.982Z,99729.50
2023-10-23T07:00:18.179Z,99736.00
2023-10-23T07:05:18.499Z,99725.81
2023-10-23T07:07:48.002Z,99722.63
2023-10-23T07:10:17.515Z,99724.09
2023-10-23T07:12:46.215Z,99722.19
2023-10-23T07:15:15.129Z,99719.03
2023-10-23T07:17:43.912Z,99712.06
2023-10-23T07:20:13.508Z,99711.56
2023-10-23T07:22:43.041Z,99722.44
2023-10-23T07:25:13.258Z,99713.47
2023-10-23T07:27:42.940Z,99717.63
2023-10-23T07:30:12.938Z,99713.91
2023-10-23T07:32:43.662Z,99713.91
2023-10-23T07:35:14.910Z,99723.25
2023-10-23T07:37:42.848Z,99718.72
2023-10-23T07:40:12.624Z,99713.72
2023-10-23T07:42:41.403Z,99721.22
2023-10-23T07:45:11.186Z,99720.78
2023-10-23T07:47:39.894Z,99725.44
2023-10-23T07:50:09.506Z,99716.38
2023-10-23T07:52:38.186Z,99728.06
2023-10-23T07:55:07.656Z,99724.69
2023-10-23T07:57:36.389Z,99730.78
2023-10-23T08:00:07.534Z,99737.97
2023-10-23T08:02:36.128Z,99738.91
2023-10-23T08:05:06.354Z,99744.81
2023-10-23T08:07:35.002Z,99755.97
2023-10-23T08:10:03.764Z,99747.03
2023-10-23T08:12:31.835Z,99749.88
2023-10-23T08:14:59.645Z,99756.72
2023-10-23T08:17:39.382Z,99747.63
2023-10-23T08:20:11.042Z,99739.09
2023-10-23T08:22:40.760Z,99739.66
2023-10-23T08:25:09.470Z,99737.41
2023-10-23T08:27:40.879Z,99741.84
2023-10-23T08:30:11.631Z,99752.31
2023-10-23T08:32:51.966Z,99746.31
2023-10-23T08:35:23.516Z,99738.34
2023-10-23T08:37:53.139Z,99738.06
2023-10-23T08:40:24.223Z,99739.41
2023-10-23T08:42:54.774Z,99739.66
2023-10-23T08:45:23.395Z,99740.94
2023-10-23T08:47:53.176Z,99736.75
2023-10-23T08:50:23.177Z,99746.97
2023-10-23T08:53:01.567Z,99740.28
2023-10-23T08:55:31.277Z,99738.69
2023-10-23T08:58:05.812Z,99744.09
2023-10-23T09:00:35.752Z,99746.28
2023-10-23T09:03:07.048Z,99741.81
2023-10-23T09:05:35.678Z,99741.44
2023-10-23T09:08:06.063Z,99733.41
2023-10-23T09:10:34.705Z,99727.41
2023-10-23T09:13:03.733Z,99727.97
2023-10-23T09:15:32.472Z,99722.91
2023-10-23T09:18:03.961Z,99723.56
2023-10-23T09:20:32.742Z,99730.41
2023-10-23T09:23:05.318Z,99735.25
2023-10-23T09:25:35.390Z,99742.81
2023-10-23T09:28:12.698Z,99742.00
2023-10-23T09:30:43.926Z,99747.38
2023-10-23T09:33:15.859Z,99751.59
2023-10-23T09:35:45.532Z,99742.16
2023-10-23T09:38:17.824Z,99742.81
2023-10-23T09:40:46.851Z,99747.25
2023-10-23T09:43:15.527Z,99734.53
2023-10-23T09:45:44.821Z,99738.19
2023-10-23T09:48:15.226Z,99734.66
2023-10-23T09:50:45.912Z,99731.50
2023-10-23T09:53:19.795Z,99730.84
2023-10-23T09:55:52.858Z,99733.50
2023-10-23T09:58:24.658Z,99729.38
2023-10-23T10:00:58.337Z,99726.47
2023-10-23T10:03:30.197Z,99719.44
2023-10-23T10:06:12.386Z,99729.38
2023-10-23T10:08:51.348Z,99720.94
2023-10-23T10:11:20.203Z,99722.72
2023-10-23T10:13:50.824Z,99721.41
2023-10-23T10:16:20.939Z,99721.38
2023-10-23T10:18:49.851Z,99717.38
2023-10-23T10:21:24.179Z,99722.00
2023-10-23T10:23:53.431Z,99716.91
2023-10-23T10:26:24.242Z,99720.31
2023-10-23T10:28:56.546Z,99706.78
2023-10-23T10:31:28.591Z,99703.31
2023-10-23T10:34:28.225Z,99702.53
2023-10-23T10:36:48.673Z,99694.53
2023-10-23T10:39:18.685Z,99702.34
2023-10-23T10:41:47.446Z,99700.78
2023-10-23T10:44:19.030Z,99698.25
2023-10-23T10:46:54.490Z,99690.00
2023-10-23T10:49:24.702Z,99687.03
2023-10-23T10:51:53.276Z,99685.88
2023-10-23T10:54:22.759Z,99682.84
2023-10-23T10:56:53.155Z,99683.84
2023-10-23T10:59:28.689Z,99690.44
2023-10-23T11:01:57.663Z,99690.63
2023-10-23T11:04:26.483Z,99692.94
2023-10-23T11:06:55.247Z,99689.84
2023-10-23T11:09:23.724Z,99689.91
2023-10-23T11:11:52.175Z,99687.75
2023-10-23T11:14:20.678Z,99684.53
2023-10-23T11:16:49.189Z,99679.31
2023-10-23T11:19:18.520Z,99682.91
2023-10-23T11:21:47.093Z,99679.34
2023-10-23T11:24:16.039Z,99679.34
2023-10-23T11:26:47.001Z,99685.56
2023-10-23T11:29:18.114Z,99675.06
2023-10-23T11:31:46.751Z,99685.75
2023-10-23T11:34:18.378Z,99675.22
2023-10-23T11:36:51.074Z,99680.41
2023-10-23T11:39:20.340Z,99675.59
2023-10-23T11:42:01.230Z,99669.25
2023-10-23T11:44:37.893Z,99675.75
2023-10-23T11:47:09.380Z,99662.97
2023-10-23T11:49:39.313Z,99660.41
2023-10-23T11:52:09.290Z,99670.53
2023-10-23T11:54:38.915Z,99660.44
2023-10-23T11:57:08.510Z,99655.59
2023-10-23T11:59:42.093Z,99648.28
2023-10-23T12:02:11.723Z,99642.91
2023-10-23T12:04:41.377Z,99631.72
2023-10-23T12:07:11.210Z,99639.31
2023-10-23T12:09:40.997Z,99627.22
2023-10-23T12:12:09.584Z,99631.03
2023-10-23T12:14:38.785Z,99626.69
2023-10-23T12:17:10.111Z,99624.16
2023-10-23T12:19:38.749Z,99614.78
2023-10-23T12:22:08.565Z,99610.97
2023-10-23T12:24:37.086Z,99613.31
2023-10-23T12:27:05.612Z,99606.16
2023-10-23T12:29:34.114Z,99603.34
2023-10-23T12:32:05.582Z,99587.28
2023-10-23T12:34:37.146Z,99596.00
2023-10-23T12:37:06.909Z,99591.66
2023-10-23T12:39:35.506Z,99588.69
2023-10-23T12:42:04.549Z,99583.25
2023-10-23T12:44:34.163Z,99583.03
2023-10-23T12:47:02.738Z,99581.88
2023-10-23T12:49:31.316Z,99580.16
2023-10-23T12:51:59.922Z,99594.50
2023-10-23T12:54:28.470Z,99586.50
2023-10-23T12:56:59.482Z,99587.59
2023-10-23T12:59:28.034Z,99580.28
2023-10-23T13:01:57.755Z,99581.63
2023-10-23T13:04:27.649Z,99577.56
2023-10-23T13:06:57.484Z,99577.53
2023-10-23T13:09:27.036Z,99585.41
2023-10-23T13:11:55.701Z,99578.72
2023-10-23T13:14:24.330Z,99581.03
2023-10-23T13:16:54.308Z,99578.78
2023-10-23T13:19:56.514Z,99578.59
2023-10-23T13:22:26.080Z,99576.16
2023-10-23T13:24:55.634Z,99573.28
2023-10-23T13:27:25.180Z,99569.09
2023-10-23T13:29:54.747Z,99568.97
2023-10-23T13:32:23.783Z,99564.44
2023-10-23T13:34:52.287Z,99567.31
2023-10-23T13:37:22.251Z,99565.81
2023-10-23T13:39:51.809Z,99565.63
2023-10-23T13:42:21.328Z,99566.09
2023-10-23T13:44:50.120Z,99554.69
2023-10-23T13:47:19.709Z,99554.28
2023-10-23T13:49:49.521Z,99556.75
2023-10-23T13:52:20.928Z,99563.06
2023-10-23T13:54:50.523Z,99553.91
2023-10-23T13:57:20.336Z,99556.81
2023-10-23T13:59:49.852Z,99550.59
2023-10-23T14:02:19.472Z,99554.28
2023-10-23T14:04:50.513Z,99552.06
2023-10-23T14:07:21.799Z,99553.22
2023-10-23T14:09:53.044Z,99553.78
2023-10-23T14:12:22.745Z,99551.22
2023-10-23T14:14:52.328Z,99538.03
2023-10-23T14:17:22.029Z,99541.38
2023-10-23T14:19:50.654Z,99548.06
2023-10-23T14:22:19.431Z,99552.44
2023-10-23T14:24:49.653Z,99549.13
2023-10-23T14:27:18.585Z,99543.38
2023-10-23T14:29:48.244Z,99545.50
2023-10-23T14:32:16.792Z,99547.44
2023-10-23T14:34:45.360Z,99538.34
2023-10-23T14:37:13.886Z,99539.91
2023-10-23T14:39:43.612Z,99545.81
2023-10-23T14:42:12.148Z,99544.72
2023-10-23T14:44:42.269Z,99539.66
2023-10-23T14:47:13.694Z,99541.84
2023-10-23T14:49:43.444Z,99537.00
2023-10-23T14:52:13.118Z,99527.22
2023-10-23T14:54:42.941Z,99525.94
2023-10-23T14:57:12.481Z,99532.94
2023-10-23T14:59:42.248Z,99530.13
2023-10-23T15:02:10.948Z,99514.16
2023-10-23T15:04:39.677Z,99511.56
2023-10-23T15:07:08.423Z,99515.97
2023-10-23T15:09:37.258Z,99523.66
2023-10-23T15:12:06.548Z,99526.00
2023-10-23T15:14:35.113Z,99526.34
2023-10-23T15:17:04.366Z,99527.94
2023-10-23T15:19:33.136Z,99529.09
2023-10-23T15:22:01.817Z,99533.81
2023-10-23T15:24:29.629Z,99529.34
2023-10-23T15:26:57.443Z,99518.84
2023-10-23T15:29:27.111Z,99524.56
2023-10-23T15:31:56.685Z,99528.66
2023-10-23T15:34:28.330Z,99530.00
2023-10-23T15:36:57.977Z,99529.16
2023-10-23T15:39:25.806Z,99529.88
2023-10-23T15:41:53.880Z,99526.47
2023-10-23T15:44:21.933Z,99527.53
2023-10-23T15:46:49.871Z,99524.72
2023-10-23T15:49:18.045Z,99525.88
2023-10-23T15:51:46.654Z,99517.97
2023-10-23T15:54:18.608Z,99523.16
2023-10-23T15:56:48.986Z,99518.13
2023-10-23T15:59:17.311Z,99522.06
2023-10-23T16:01:45.339Z,99520.13
2023-10-23T16:04:13.264Z,99517.22
2023-10-23T16:06:45.101Z,99525.25
2023-10-23T16:09:22.453Z,99521.03
2023-10-23T16:12:09.780Z,99524.72
2023-10-23T16:14:53.599Z,99520.25
2023-10-23T16:18:00.803Z,99522.75
2023-10-23T16:20:29.783Z,99530.22
2023-10-23T16:22:59.746Z,99525.16
2023-10-23T16:25:29.406Z,99534.38
2023-10-23T16:28:00.264Z,99551.34
2023-10-23T16:30:29.869Z,99538.59
2023-10-23T16:32:57.853Z,99550.88
2023-10-23T16:35:29.646Z,99554.91
2023-10-23T16:37:57.615Z,99546.94
2023-10-23T16:40:29.168Z,99545.47
2023-10-23T16:42:58.879Z,99542.47
2023-10-23T16:45:32.909Z,99549.97
2023-10-23T16:48:02.194Z,99551.91
2023-10-23T16:50:32.012Z,99556.88
2023-10-23T16:53:02.197Z,99547.09
2023-10-23T16:55:30.909Z,99552.34
2023-10-23T16:58:00.687Z,99547.88
2023-10-23T17:00:28.684Z,99556.59
2023-10-23T17:03:01.466Z,99544.69
2023-10-23T17:05:36.527Z,99536.28
2023-10-23T17:08:05.796Z,99543.44
2023-10-23T17:10:35.872Z,99543.16
2023-10-23T17:13:05.732Z,99540.78
2023-10-23T17:15:41.839Z,99534.56
2023-10-23T17:18:11.584Z,99527.84
2023-10-23T17:20:42.939Z,99526.72
2023-10-23T17:23:12.908Z,99535.03
2023-10-23T17:25:50.263Z,99524.84
2023-10-23T17:28:19.143Z,99521.63
2023-10-23T17:31:02.478Z,99526.78
2023-10-23T17:33:32.782Z,99531.66
2023-10-23T17:36:05.453Z,99523.25
2023-10-23T17:38:37.295Z,99526.56
2023-10-23T17:41:18.259Z,99525.75
2023-10-23T17:43:47.016Z,99524.09
2023-10-23T17:46:16.254Z,99522.16
2023-10-23T17:48:47.240Z,99513.94
2023-10-23T17:51:17.699Z,99519.50
2023-10-23T17:54:01.729Z,99522.88
2023-10-23T17:56:37.202Z,99515.63
2023-10-23T17:59:07.211Z,99515.59
2023-10-23T18:04:07.393Z,99523.53
2023-10-23T18:06:38.799Z,99529.22
2023-10-23T18:09:10.930Z,99517.84
2023-10-23T18:11:42.431Z,99524.16
2023-10-23T18:14:15.723Z,99526.50
2023-10-23T18:16:46.900Z,99528.25
2023-10-23T18:19:17.081Z,99522.56
2023-10-23T18:21:49.585Z,99522.56
2023-10-23T18:24:20.617Z,99530.03
2023-10-23T18:26:50.213Z,99531.22
2023-10-23T18:29:19.013Z,99526.22
2023-10-23T18:31:49.800Z,99524.13
2023-10-23T18:34:19.274Z,99524.22
2023-10-23T18:36:49.129Z,99532.88
2023-10-23T18:39:17.940Z,99530.13
2023-10-23T18:41:47.526Z,99527.88
2023-10-23T18:44:28.855Z,99529.28
2023-10-23T18:47:05.358Z,99528.81
2023-10-23T18:49:35.409Z,99536.22
2023-10-23T18:52:10.766Z,99533.47
2023-10-23T18:54:42.363Z,99530.34
2023-10-23T18:57:13.922Z,99529.22
2023-10-23T18:59:43.614Z,99527.56
2023-10-23T19:02:15.110Z,99529.59
2023-10-23T19:04:44.587Z,99520.16
2023-10-23T19:07:14.514Z,99516.06
2023-10-23T19:09:44.109Z,99519.81
2023-10-23T19:12:13.704Z,99515.78
2023-10-23T19:14:45.517Z,99516.63
2023-10-23T19:17:28.886Z,99523.88
2023-10-23T19:20:06.793Z,99522.84
2023-10-23T19:22:37.309Z,99521.16
2023-10-23T19:25:08.664Z,99512.06
2023-10-23T19:27:37.493Z,99507.94
2023-10-23T19:30:12.924Z,99511.75
2023-10-23T19:32:43.066Z,99516.44
2023-10-23T19:35:14.211Z,99516.06
2023-10-23T19:37:43.681Z,99513.00
2023-10-23T19:40:13.958Z,99506.25
2023-10-23T19:42:44.562Z,99504.63
2023-10-23T19:45:14.238Z,99508.81
2023-10-23T19:47:43.616Z,99508.72
2023-10-23T19:50:13.634Z,99513.84
2023-10-23T19:52:45.547Z,99509.34
2023-10-23T19:55:45.297Z,99515.03
2023-10-23T19:58:06.288Z,99506.88
2023-10-23T20:00:36.052Z,99502.28
2023-10-23T20:03:06.490Z,99499.69
2023-10-23T20:05:35.399Z,99497.44
2023-10-23T20:08:05.957Z,99484.00
2023-10-23T20:10:35.728Z,99483.00
2023-10-23T20:13:05.962Z,99487.50
2023-10-23T20:15:36.902Z,99487.81
2023-10-23T20:18:06.529Z,99490.78
2023-10-23T20:20:36.188Z,99485.66
2023-10-23T20:23:05.101Z,99474.59
2023-10-23T20:25:34.520Z,99471.72
2023-10-23T20:28:05.596Z,99471.03
2023-10-23T20:30:35.287Z,99475.91
2023-10-23T20:33:04.963Z,99470.47
2023-10-23T20:35:33.783Z,99469.97
2023-10-23T20:38:03.572Z,99472.06
2023-10-23T20:40:37.247Z,99466.63
2023-10-23T20:43:07.178Z,99469.84
2023-10-23T20:45:39.653Z,99479.28
2023-10-23T20:48:08.520Z,99478.81
2023-10-23T20:50:41.679Z,99480.81
2023-10-23T20:53:10.393Z,99473.69
2023-10-23T20:55:39.958Z,99466.56
2023-10-23T20:58:09.589Z,99473.69
2023-10-23T21:00:38.536Z,99472.59
2023-10-23T21:03:09.178Z,99470.97
2023-10-23T21:05:39.687Z,99469.13
2023-10-23T21:08:09.285Z,99465.47
2023-10-23T21:10:38.914Z,99464.38
2023-10-23T21:13:08.621Z,99471.66
2023-10-23T21:15:37.421Z,99461.69
2023-10-23T21:18:07.107Z,99460.84
2023-10-23T21:20:36.642Z,99456.59
2023-10-23T21:23:07.105Z,99458.69
2023-10-23T21:25:35.937Z,99463.44
2023-10-23T21:28:05.820Z,99461.34
2023-10-23T21:30:34.587Z,99453.22
2023-10-23T21:33:03.904Z,99459.91
2023-10-23T21:35:33.481Z,99462.59
2023-10-23T21:38:02.288Z,99461.09
2023-10-23T21:40:30.999Z,99452.22
2023-10-23T21:42:59.793Z,99448.25
2023-10-23T21:45:28.633Z,99451.88
2023-10-23T21:47:57.496Z,99447.19
2023-10-23T21:50:26.554Z,99439.84
2023-10-23T21:52:56.538Z,99441.63
2023-10-23T21:55:26.097Z,99436.25
2023-10-23T21:57:55.250Z,99437.06
2023-10-23T22:00:32.280Z,99433.72
2023-10-23T22:03:03.701Z,99422.94
2023-10-23T22:05:33.251Z,99420.28
2023-10-23T22:08:02.489Z,99417.84
2023-10-23T22:10:32.274Z,99417.75
2023-10-23T22:13:02.113Z,99417.13
2023-10-23T22:15:30.898Z,99411.03
2023-10-23T22:17:59.659Z,99412.47
2023-10-23T22:20:28.663Z,99415.44
2023-10-23T22:22:57.355Z,99414.34
2023-10-23T22:25:26.173Z,99415.13
2023-10-23T22:27:54.936Z,99416.94
2023-10-23T22:30:24.627Z,99414.69
2023-10-23T22:33:07.906Z,99401.59
2023-10-23T22:35:42.905Z,99399.16
2023-10-23T22:38:14.310Z,99391.31
2023-10-23T22:40:43.783Z,99395.00
2023-10-23T22:43:13.294Z,99391.63
2023-10-23T22:45:51.384Z,99397.47
2023-10-23T22:48:31.158Z,99399.44
2023-10-23T22:51:00.411Z,99385.97
2023-10-23T22:53:30.702Z,99389.09
2023-10-23T22:56:02.938Z,99389.09
2023-10-23T22:58:33.062Z,99388.56
2023-10-23T23:01:03.210Z,99386.81
2023-10-23T23:03:33.569Z,99388.13
2023-10-23T23:06:07.585Z,99387.72
2023-10-23T23:08:44.142Z,99394.03
2023-10-23T23:11:13.727Z,99389.63
2023-10-23T23:13:43.963Z,99385.00
2023-10-23T23:16:13.280Z,99383.28
2023-10-23T23:18:48.554Z,99373.91
2023-10-23T23:21:18.472Z,99370.38
2023-10-23T23:23:48.124Z,99365.66
2023-10-23T23:26:16.897Z,99362.84
2023-10-23T23:28:45.686Z,99360.69
2023-10-23T23:31:14.498Z,99350.81
2023-10-23T23:33:43.163Z,99349.97
2023-10-23T23:36:11.870Z,99352.97
2023-10-23T23:38:41.369Z,99358.75
2023-10-23T23:41:10.123Z,99355.13
2023-10-23T23:43:38.849Z,99344.78
2023-10-23T23:46:07.765Z,99342.75
2023-10-23T23:48:36.477Z,99345.44
2023-10-23T23:51:05.517Z,99340.84
2023-10-23T23:53:34.359Z,99339.28
2023-10-23T23:56:02.371Z,99336.94
2023-10-23T23:58:31.115Z,99338.13
